PILOTS ONLINE: 351    ATC ONLINE: 76

Location

IATA BIG
City Delta Junction Ft Greely
Country  United States
Latitude 63° 59' 40" N
Longitude 145° 43' 19" W
Elevation 1291 ft
Type Medium Airport

Weather

METAR
2014/07/11 00:53
PABI 110053Z 16013G21KT 10SM FEW050 SCT100 BKN150 OVC200 21/07 A2976 RMK AO2 SLP072 BINOVC ACSL DSNT S T02060067
TAF
2014/07/11 00:21
TAF PABI 1100/1204 16010G15KT 9999 FEW060 BKN150 QNH2974INS 
      BECMG 1101/1102 16015G25KT 9999 FEW060 BKN150 QNH2971INS 
      TEMPO 1102/1105 180025G35KT 510005 
      BECMG 1105/1106 16012KT 9999 FEW090 SCT130 BKN230 QNH2959INS TX23/1102Z TN15/1114Z 
      AMD 110004

Runways

01/19 9000 ft / 150 ft
07/25 4679 ft / 164 ft
10/28 6115 ft / 150 ft

Outbound flights

Inbound flights


Spotted incorrect airport information? Please login with your VATSIM ID.